Time,TemperatureF,DewpointF,PressureIn,WindDirection,WindDirectionDegrees,WindSpeedMPH,WindSpeedGustMPH,Humidity,HourlyPrecipIn,Conditions,Clouds,dailyrainin,SoftwareType,DateUTC
2015-02-01 00:04:00,37.0,17.1,30.96,NE,53,0.0,0.0,44,0.00,,,0.00,WeatherCatV1.02B3,2015-02-01 05:04:00,
2015-02-01 00:09:00,37.1,17.2,30.96,NE,53,0.0,0.0,44,0.00,,,0.00,WeatherCatV1.02B3,2015-02-01 05:09:00,
2015-02-01 00:14:00,37.2,16.8,30.96,NE,53,0.0,0.0,43,0.00,,,0.00,WeatherCatV1.02B3,2015-02-01 05:14:00,
2015-02-01 00:19:00,37.2,17.8,30.96,NE,53,0.0,0.0,45,0.00,,,0.00,WeatherCatV1.02B3,2015-02-01 05:19:00,
2015-02-01 00:24:00,37.3,17.4,30.96,NE,53,0.0,0.0,44,0.00,,,0.00,WeatherCatV1.02B3,2015-02-01 05:24:00,
2015-02-01 00:29:00,37.4,19.0,30.96,NE,53,0.0,0.0,47,0.00,,,0.00,WeatherCatV1.02B3,2015-02-01 05:29:00,
2015-02-01 00:34:00,37.7,20.3,30.96,NE,53,0.0,0.0,49,0.00,,,0.00,WeatherCatV1.02B3,2015-02-01 05:34:00,
2015-02-01 00:39:00,38.0,22.0,30.96,SE,130,0.0,0.0,52,0.00,,,0.00,WeatherCatV1.02B3,2015-02-01 05:39:00,
2015-02-01 00:44:00,38.2,21.7,30.96,SE,130,0.0,0.0,51,0.00,,,0.00,WeatherCatV1.02B3,2015-02-01 05:44:00,
2015-02-01 00:49:00,38.4,21.9,30.96,East,80,0.0,0.0,51,0.00,,,0.00,WeatherCatV1.02B3,2015-02-01 05:49:00,
2015-02-01 00:54:00,38.6,21.6,30.95,East,80,0.0,0.0,50,0.00,,,0.00,WeatherCatV1.02B3,2015-02-01 05:54:00,
2015-02-01 00:59:00,38.6,20.1,30.95,East,80,0.0,0.0,47,0.00,,,0.00,WeatherCatV1.02B3,2015-02-01 05:59:00,
2015-02-01 01:04:00,38.4,19.4,30.95,East,80,0.0,0.0,46,0.00,,,0.00,WeatherCatV1.02B3,2015-02-01 06:04:00,
2015-02-01 01:09:00,38.0,19.6,30.95,East,80,0.0,0.0,47,0.00,,,0.00,WeatherCatV1.02B3,2015-02-01 06:09:00,
2015-02-01 01:19:00,37.8,22.7,30.95,ENE,77,0.0,0.0,54,0.00,,,0.00,WeatherCatV1.02B3,2015-02-01 06:19:00,
2015-02-01 01:24:00,37.9,23.6,30.95,ESE,114,0.0,0.0,56,0.00,,,0.00,WeatherCatV1.02B3,2015-02-01 06:24:00,
2015-02-01 01:29:00,37.9,24.9,30.94,ESE,113,0.0,0.0,59,0.00,,,0.00,WeatherCatV1.02B3,2015-02-01 06:29:00,
2015-02-01 01:34:00,38.0,25.4,30.94,ESE,113,0.0,0.0,60,0.00,,,0.00,WeatherCatV1.02B3,2015-02-01 06:34:00,
2015-02-01 01:39:00,38.0,25.0,30.94,SSE,164,0.0,0.0,59,0.00,,,0.00,WeatherCatV1.02B3,2015-02-01 06:39:00,
2015-02-01 01:44:00,38.0,25.4,30.93,SSE,165,0.0,0.0,60,0.00,,,0.00,WeatherCatV1.02B3,2015-02-01 06:44:00,
2015-02-01 01:49:00,37.9,25.7,30.92,SSE,165,0.0,0.0,61,0.00,,,0.00,WeatherCatV1.02B3,2015-02-01 06:49:00,
2015-02-01 01:54:00,37.8,26.0,30.92,SSE,165,0.0,0.0,62,0.00,,,0.00,WeatherCatV1.02B3,2015-02-01 06:54:00,
2015-02-01 01:59:00,37.6,25.8,30.91,SSE,165,0.0,0.0,62,0.00,,,0.00,WeatherCatV1.02B3,2015-02-01 06:59:00,
2015-02-01 02:04:00,37.4,26.0,30.91,SSE,165,0.0,0.0,63,0.00,,,0.00,WeatherCatV1.02B3,2015-02-01 07:04:00,
2015-02-01 02:09:00,37.3,25.9,30.91,SSE,165,0.0,0.0,63,0.00,,,0.00,WeatherCatV1.02B3,2015-02-01 07:09:00,
2015-02-01 02:14:00,37.1,25.7,30.91,SSE,165,0.0,0.0,63,0.00,,,0.00,WeatherCatV1.02B3,2015-02-01 07:14:00,
2015-02-01 02:19:00,37.0,26.3,30.91,SSE,165,0.0,0.0,65,0.00,,,0.00,WeatherCatV1.02B3,2015-02-01 07:19:00,
2015-02-01 02:24:00,36.8,25.0,30.90,SSE,165,0.0,0.0,62,0.00,,,0.00,WeatherCatV1.02B3,2015-02-01 07:24:00,
2015-02-01 02:29:00,36.8,25.4,30.91,SSE,165,0.0,0.0,63,0.00,,,0.00,WeatherCatV1.02B3,2015-02-01 07:29:00,
2015-02-01 02:34:00,37.0,25.2,30.91,SSE,165,0.0,0.0,62,0.00,,,0.00,WeatherCatV1.02B3,2015-02-01 07:34:00,
2015-02-01 02:39:00,37.0,24.8,30.91,SSE,165,0.0,0.0,61,0.00,,,0.00,WeatherCatV1.02B3,2015-02-01 07:39:00,
2015-02-01 02:44:00,37.1,25.3,30.90,SSE,165,0.0,0.0,62,0.00,,,0.00,WeatherCatV1.02B3,2015-02-01 07:44:00,
2015-02-01 02:49:00,37.1,25.3,30.91,SSE,165,0.0,0.0,62,0.00,,,0.00,WeatherCatV1.02B3,2015-02-01 07:49:00,
2015-02-01 02:54:00,37.2,25.4,30.91,SSE,165,0.0,0.0,62,0.00,,,0.00,WeatherCatV1.02B3,2015-02-01 07:54:00,
2015-02-01 02:59:00,37.3,25.9,30.90,SSE,165,0.0,0.0,63,0.00,,,0.00,WeatherCatV1.02B3,2015-02-01 07:59:00,
2015-02-01 03:04:00,37.4,26.0,30.91,SSE,165,0.0,0.0,63,0.00,,,0.00,WeatherCatV1.02B3,2015-02-01 08:04:00,
2015-02-01 03:09:00,37.4,26.0,30.92,SSE,165,0.0,0.0,63,0.00,,,0.00,WeatherCatV1.02B3,2015-02-01 08:09:00,
2015-02-01 03:14:00,37.5,25.7,30.90,SSE,165,0.0,0.0,62,0.00,,,0.00,WeatherCatV1.02B3,2015-02-01 08:14:00,
2015-02-01 03:19:00,37.6,25.8,30.89,SSE,165,0.0,0.0,62,0.00,,,0.00,WeatherCatV1.02B3,2015-02-01 08:19:00,
2015-02-01 03:24:00,37.8,26.4,30.90,WNW,298,0.0,0.0,63,0.00,,,0.00,WeatherCatV1.02B3,2015-02-01 08:24:00,
2015-02-01 03:29:00,38.0,26.5,30.89,WNW,298,0.0,0.0,63,0.00,,,0.00,WeatherCatV1.02B3,2015-02-01 08:29:00,
2015-02-01 03:34:00,38.0,26.2,30.90,WNW,298,0.0,0.0,62,0.00,,,0.00,WeatherCatV1.02B3,2015-02-01 08:34:00,
2015-02-01 03:39:00,37.9,26.4,30.90,WNW,298,0.0,0.0,63,0.00,,,0.00,WeatherCatV1.02B3,2015-02-01 08:39:00,
2015-02-01 03:44:00,37.8,26.0,30.90,WNW,298,0.0,0.0,62,0.00,,,0.00,WeatherCatV1.02B3,2015-02-01 08:44:00,
2015-02-01 03:49:00,37.6,26.2,30.90,WNW,298,0.0,0.0,63,0.00,,,0.00,WeatherCatV1.02B3,2015-02-01 08:49:00,
2015-02-01 03:54:00,36.9,27.0,30.91,WNW,298,0.0,0.0,67,0.00,,,0.00,WeatherCatV1.02B3,2015-02-01 08:54:00,
2015-02-01 03:59:00,36.2,24.8,30.91,WNW,298,0.0,0.0,63,0.00,,,0.00,WeatherCatV1.02B3,2015-02-01 08:59:00,
2015-02-01 04:04:00,36.0,24.6,30.92,WNW,298,0.0,0.0,63,0.00,,,0.00,WeatherCatV1.02B3,2015-02-01 09:04:00,
2015-02-01 04:09:00,35.9,23.8,30.92,WNW,298,0.0,0.0,61,0.00,,,0.00,WeatherCatV1.02B3,2015-02-01 09:09:00,
2015-02-01 04:14:00,35.8,24.1,30.91,WNW,298,0.0,0.0,62,0.00,,,0.00,WeatherCatV1.02B3,2015-02-01 09:14:00,
2015-02-01 04:19:00,35.7,24.0,30.91,WNW,298,0.0,0.0,62,0.00,,,0.00,WeatherCatV1.02B3,2015-02-01 09:19:00,
2015-02-01 04:24:00,35.5,23.0,30.91,WNW,298,0.0,0.0,60,0.00,,,0.00,WeatherCatV1.02B3,2015-02-01 09:24:00,
2015-02-01 04:29:00,35.4,22.5,30.91,WNW,298,0.0,0.0,59,0.00,,,0.00,WeatherCatV1.02B3,2015-02-01 09:29:00,
2015-02-01 04:34:00,35.3,23.2,30.93,WNW,298,0.0,0.0,61,0.00,,,0.00,WeatherCatV1.02B3,2015-02-01 09:34:00,
2015-02-01 04:39:00,35.2,23.9,30.92,WNW,297,0.0,0.0,63,0.00,,,0.00,WeatherCatV1.02B3,2015-02-01 09:39:00,
2015-02-01 04:44:00,35.3,24.4,30.92,WNW,297,0.0,0.0,64,0.00,,,0.00,WeatherCatV1.02B3,2015-02-01 09:44:00,
2015-02-01 04:49:00,35.3,24.4,30.93,WNW,297,0.0,0.0,64,0.00,,,0.00,WeatherCatV1.02B3,2015-02-01 09:49:00,
2015-02-01 04:54:00,35.4,24.1,30.92,WNW,297,0.0,0.0,63,0.00,,,0.00,WeatherCatV1.02B3,2015-02-01 09:54:00,
2015-02-01 04:59:00,35.5,24.2,30.91,WNW,297,0.0,0.0,63,0.00,,,0.00,WeatherCatV1.02B3,2015-02-01 09:59:00,
2015-02-01 05:04:00,35.4,24.8,30.92,WNW,297,0.0,0.0,65,0.00,,,0.00,WeatherCatV1.02B3,2015-02-01 10:04:00,
2015-02-01 05:09:00,35.2,24.6,30.93,WNW,297,0.0,0.0,65,0.00,,,0.00,WeatherCatV1.02B3,2015-02-01 10:09:00,
2015-02-01 05:14:00,35.0,23.7,30.93,WNW,297,0.0,0.0,63,0.00,,,0.00,WeatherCatV1.02B3,2015-02-01 10:14:00,
2015-02-01 05:19:00,34.9,23.2,30.94,WNW,297,0.0,0.0,62,0.00,,,0.00,WeatherCatV1.02B3,2015-02-01 10:19:00,
2015-02-01 05:24:00,34.9,23.2,30.94,WNW,297,0.0,0.0,62,0.00,,,0.00,WeatherCatV1.02B3,2015-02-01 10:24:00,
2015-02-01 05:29:00,35.0,23.3,30.95,WNW,297,0.0,0.0,62,0.00,,,0.00,WeatherCatV1.02B3,2015-02-01 10:29:00,
2015-02-01 05:34:00,35.2,23.9,30.94,WNW,297,0.0,0.0,63,0.00,,,0.00,WeatherCatV1.02B3,2015-02-01 10:34:00,
2015-02-01 05:39:00,35.5,24.2,30.94,WNW,297,0.0,0.0,63,0.00,,,0.00,WeatherCatV1.02B3,2015-02-01 10:39:00,
2015-02-01 05:44:00,35.8,23.7,30.94,WNW,297,0.0,0.0,61,0.00,,,0.00,WeatherCatV1.02B3,2015-02-01 10:44:00,
2015-02-01 05:49:00,35.9,23.4,30.94,WNW,297,0.0,0.0,60,0.00,,,0.00,WeatherCatV1.02B3,2015-02-01 10:49:00,
2015-02-01 05:54:00,36.0,23.1,30.94,WNW,297,0.0,0.0,59,0.00,,,0.00,WeatherCatV1.02B3,2015-02-01 10:54:00,
2015-02-01 05:59:00,36.1,23.2,30.95,WNW,297,0.0,0.0,59,0.00,,,0.00,WeatherCatV1.02B3,2015-02-01 10:59:00,
2015-02-01 06:04:00,36.2,23.7,30.94,WNW,297,0.0,0.0,60,0.00,,,0.00,WeatherCatV1.02B3,2015-02-01 11:04:00,
2015-02-01 06:09:00,36.2,22.5,30.94,WNW,297,0.0,0.0,57,0.00,,,0.00,WeatherCatV1.02B3,2015-02-01 11:09:00,
2015-02-01 06:14:00,36.2,22.0,30.94,WNW,297,0.0,0.0,56,0.00,,,0.00,WeatherCatV1.02B3,2015-02-01 11:14:00,
2015-02-01 06:19:00,36.3,22.5,30.94,WNW,297,0.0,0.0,57,0.00,,,0.00,WeatherCatV1.02B3,2015-02-01 11:19:00,
2015-02-01 06:24:00,36.3,21.7,30.94,WNW,297,0.0,0.0,55,0.00,,,0.00,WeatherCatV1.02B3,2015-02-01 11:24:00,
2015-02-01 06:29:00,36.3,21.7,30.95,WNW,297,0.0,0.0,55,0.00,,,0.00,WeatherCatV1.02B3,2015-02-01 11:29:00,
2015-02-01 06:34:00,36.4,22.6,30.95,South,186,0.0,0.0,57,0.00,,,0.00,WeatherCatV1.02B3,2015-02-01 11:34:00,
2015-02-01 06:39:00,36.4,20.5,30.95,NW,304,0.0,0.0,52,0.00,,,0.00,WeatherCatV1.02B3,2015-02-01 11:39:00,
2015-02-01 06:44:00,36.6,19.7,30.93,NW,304,0.0,0.0,50,0.00,,,0.00,WeatherCatV1.02B3,2015-02-01 11:44:00,
2015-02-01 06:49:00,36.8,19.9,30.92,NW,304,0.0,0.0,50,0.00,,,0.00,WeatherCatV1.02B3,2015-02-01 11:49:00,
2015-02-01 06:54:00,37.1,19.7,30.93,NW,304,0.0,0.0,49,0.00,,,0.00,WeatherCatV1.02B3,2015-02-01 11:54:00,
2015-02-01 06:59:00,37.1,19.7,30.91,NW,304,0.0,0.0,49,0.00,,,0.00,WeatherCatV1.02B3,2015-02-01 11:59:00,
2015-02-01 07:04:00,37.2,19.8,30.90,NW,304,0.0,0.0,49,0.00,,,0.00,WeatherCatV1.02B3,2015-02-01 12:04:00,
2015-02-01 07:09:00,37.3,17.9,30.89,NW,304,0.0,0.0,45,0.00,,,0.00,WeatherCatV1.02B3,2015-02-01 12:09:00,
2015-02-01 07:14:00,37.3,19.9,30.90,NW,304,0.0,0.0,49,0.00,,,0.00,WeatherCatV1.02B3,2015-02-01 12:14:00,
2015-02-01 07:19:00,37.1,19.7,30.91,NW,304,0.0,0.0,49,0.00,,,0.00,WeatherCatV1.02B3,2015-02-01 12:19:00,
2015-02-01 07:24:00,37.0,16.6,30.91,NW,304,0.0,0.0,43,0.00,,,0.00,WeatherCatV1.02B3,2015-02-01 12:24:00,
2015-02-01 07:29:00,36.9,18.6,30.92,NW,304,0.0,0.0,47,0.00,,,0.00,WeatherCatV1.02B3,2015-02-01 12:29:00,
2015-02-01 07:34:00,36.8,18.0,30.92,NW,304,0.0,0.0,46,0.00,,,0.00,WeatherCatV1.02B3,2015-02-01 12:34:00,
2015-02-01 07:39:00,36.8,18.5,30.93,NW,304,0.0,0.0,47,0.00,,,0.00,WeatherCatV1.02B3,2015-02-01 12:39:00,
2015-02-01 07:44:00,36.7,17.9,30.92,NW,304,0.0,0.0,46,0.00,,,0.00,WeatherCatV1.02B3,2015-02-01 12:44:00,
2015-02-01 07:49:00,37.0,17.1,30.92,NW,304,0.0,0.0,44,0.00,,,0.00,WeatherCatV1.02B3,2015-02-01 12:49:00,
2015-02-01 07:54:00,37.1,16.7,30.92,NW,304,0.0,0.0,43,0.00,,,0.00,WeatherCatV1.02B3,2015-02-01 12:54:00,
2015-02-01 07:59:00,37.3,16.3,30.91,NW,304,0.0,0.0,42,0.00,,,0.00,WeatherCatV1.02B3,2015-02-01 12:59:00,